Aérodrome :
LOGIN :

S'inscrire | Disclaimer

   EN    FR    IT 

 










Légende :    VFR   VFR Marginal   IFR   IFR Intensif   IFR Très Intensif
Visi : 
Plafond : 
>= 8 km
>= 3000ft
5 à 8 km
1000 à 3000 ft
1500m à 5 km
500 à 1000 ft
800 à 1500m
200 à 500 ft
< 800m
< 200 ft
Symboles :   Orages  Brouillard  Fortes neiges  Fortes précipitations  Vent > 20 kt
SIGMETs :   Divers  Orages  Givrage  Turbulence  Onde Orograph.  Cendres Volcan.






- Altitude de l'aérodrome : 1017 ft


LFSL - Brive Souillac

DERNIER METAR :
  • 240100Z AUTO 15004KT CAVOK 08/07 Q1021

METARs EXPIRÉS :
  • 240030Z AUTO 14005KT CAVOK 08/06 Q1021
  • 240000Z AUTO 18005KT CAVOK 08/06 Q1021
  • 232330Z AUTO 16004KT CAVOK 09/06 Q1021
  • 232300Z AUTO 15005KT CAVOK 10/06 Q1021
  • 232230Z AUTO 15006KT 9999 SCT036 10/06 Q1021

TAF TAF LFSL
Valide du 23 à 18h jusqu'au 24 à 03h UTC


231700Z 2318/2403 12008KT CAVOK
TEMPO 2319/2323 BKN035
BECMG 2401/2403 VRB02KT



MET'MAP, la Météo Aéronautique d'un coup d'oeil ! - Copyright ORBIFLY Décembre 2007 - Disclaimer

ORBIFLY MET'MAP TEAM :

Programmation & Développement : Alexandra Zaïnal
Sur une idée originale de : Baudouin d'Aumeries
Assistance à la programmation : Marc-Olivier Méhu
Soutien technique & logistique : Manuel Goepfert

Contact : metmap@orbifly.com




SOURCES & CREDITS :

   NOAA